sensor_id;sensor_type;location;lat;lon;timestamp;P1;durP1;ratioP1;P2;durP2;ratioP2
18997;SDS011;9632;51.018;4.284;2023-04-01T00:00:44;10.10;;;1.10;;
18997;SDS011;9632;51.018;4.284;2023-04-01T00:03:10;9.68;;;1.27;;
18997;SDS011;9632;51.018;4.284;2023-04-01T00:05:36;6.88;;;1.00;;
18997;SDS011;9632;51.018;4.284;2023-04-01T00:08:02;11.93;;;1.33;;
18997;SDS011;9632;51.018;4.284;2023-04-01T00:10:28;6.78;;;1.02;;
18997;SDS011;9632;51.018;4.284;2023-04-01T00:12:53;8.13;;;1.30;;
18997;SDS011;9632;51.018;4.284;2023-04-01T00:15:19;10.07;;;1.55;;
18997;SDS011;9632;51.018;4.284;2023-04-01T00:17:45;5.90;;;1.10;;
18997;SDS011;9632;51.018;4.284;2023-04-01T00:20:11;7.03;;;1.40;;
18997;SDS011;9632;51.018;4.284;2023-04-01T00:22:37;12.98;;;2.20;;
18997;SDS011;9632;51.018;4.284;2023-04-01T00:25:03;9.70;;;2.35;;
18997;SDS011;9632;51.018;4.284;2023-04-01T00:27:30;14.50;;;2.83;;
18997;SDS011;9632;51.018;4.284;2023-04-01T00:29:55;9.30;;;2.40;;
18997;SDS011;9632;51.018;4.284;2023-04-01T00:32:21;8.35;;;2.05;;
18997;SDS011;9632;51.018;4.284;2023-04-01T00:34:49;11.70;;;2.30;;
18997;SDS011;9632;51.018;4.284;2023-04-01T00:37:16;11.73;;;2.47;;
18997;SDS011;9632;51.018;4.284;2023-04-01T00:39:42;7.13;;;2.15;;
18997;SDS011;9632;51.018;4.284;2023-04-01T00:42:09;8.68;;;2.30;;
18997;SDS011;9632;51.018;4.284;2023-04-01T00:44:40;10.40;;;2.15;;
18997;SDS011;9632;51.018;4.284;2023-04-01T00:47:06;12.63;;;2.45;;
18997;SDS011;9632;51.018;4.284;2023-04-01T00:49:39;12.55;;;2.70;;
18997;SDS011;9632;51.018;4.284;2023-04-01T00:52:07;9.75;;;2.35;;
18997;SDS011;9632;51.018;4.284;2023-04-01T00:54:36;10.73;;;2.58;;
18997;SDS011;9632;51.018;4.284;2023-04-01T00:57:05;12.27;;;3.00;;
18997;SDS011;9632;51.018;4.284;2023-04-01T00:59:56;9.23;;;2.42;;
18997;SDS011;9632;51.018;4.284;2023-04-01T01:02:23;16.65;;;4.13;;
18997;SDS011;9632;51.018;4.284;2023-04-01T01:04:49;13.85;;;3.30;;
18997;SDS011;9632;51.018;4.284;2023-04-01T01:10:16;14.60;;;3.63;;
18997;SDS011;9632;51.018;4.284;2023-04-01T01:15:30;15.73;;;4.18;;
18997;SDS011;9632;51.018;4.284;2023-04-01T01:31:37;16.42;;;4.70;;
18997;SDS011;9632;51.018;4.284;2023-04-01T01:34:32;9.55;;;4.30;;
18997;SDS011;9632;51.018;4.284;2023-04-01T01:37:20;13.73;;;4.82;;
18997;SDS011;9632;51.018;4.284;2023-04-01T01:39:51;9.85;;;4.72;;
18997;SDS011;9632;51.018;4.284;2023-04-01T01:42:20;13.98;;;4.65;;
18997;SDS011;9632;51.018;4.284;2023-04-01T01:44:47;10.43;;;4.35;;
18997;SDS011;9632;51.018;4.284;2023-04-01T01:47:15;10.05;;;4.25;;
18997;SDS011;9632;51.018;4.284;2023-04-01T01:49:43;9.38;;;3.60;;
18997;SDS011;9632;51.018;4.284;2023-04-01T01:52:11;13.38;;;3.90;;
18997;SDS011;9632;51.018;4.284;2023-04-01T01:54:46;13.07;;;3.58;;
18997;SDS011;9632;51.018;4.284;2023-04-01T01:57:23;10.63;;;3.70;;
18997;SDS011;9632;51.018;4.284;2023-04-01T02:00:04;11.85;;;3.75;;
18997;SDS011;9632;51.018;4.284;2023-04-01T02:02:45;10.95;;;3.42;;
18997;SDS011;9632;51.018;4.284;2023-04-01T02:05:15;11.63;;;3.55;;
18997;SDS011;9632;51.018;4.284;2023-04-01T02:07:56;13.80;;;3.45;;
18997;SDS011;9632;51.018;4.284;2023-04-01T02:10:31;7.60;;;3.22;;
18997;SDS011;9632;51.018;4.284;2023-04-01T02:13:01;15.20;;;3.78;;
18997;SDS011;9632;51.018;4.284;2023-04-01T02:15:32;13.15;;;3.95;;
18997;SDS011;9632;51.018;4.284;2023-04-01T02:18:02;10.55;;;3.40;;
18997;SDS011;9632;51.018;4.284;2023-04-01T02:20:29;12.60;;;3.50;;
18997;SDS011;9632;51.018;4.284;2023-04-01T02:22:56;13.85;;;3.83;;
18997;SDS011;9632;51.018;4.284;2023-04-01T02:25:28;11.98;;;3.28;;
18997;SDS011;9632;51.018;4.284;2023-04-01T02:27:58;11.43;;;3.13;;
18997;SDS011;9632;51.018;4.284;2023-04-01T02:30:26;14.52;;;3.35;;
18997;SDS011;9632;51.018;4.284;2023-04-01T02:32:55;15.23;;;3.72;;
18997;SDS011;9632;51.018;4.284;2023-04-01T02:35:22;13.80;;;3.20;;
18997;SDS011;9632;51.018;4.284;2023-04-01T02:37:49;15.52;;;4.18;;
18997;SDS011;9632;51.018;4.284;2023-04-01T02:40:17;10.75;;;3.13;;
18997;SDS011;9632;51.018;4.284;2023-04-01T02:42:43;11.73;;;3.22;;
18997;SDS011;9632;51.018;4.284;2023-04-01T02:45:09;10.50;;;2.50;;
18997;SDS011;9632;51.018;4.284;2023-04-01T02:47:35;10.80;;;2.45;;
18997;SDS011;9632;51.018;4.284;2023-04-01T02:50:01;10.38;;;2.58;;
18997;SDS011;9632;51.018;4.284;2023-04-01T02:52:28;10.02;;;2.35;;
18997;SDS011;9632;51.018;4.284;2023-04-01T02:54:55;7.90;;;2.40;;
18997;SDS011;9632;51.018;4.284;2023-04-01T02:57:21;9.35;;;2.88;;
18997;SDS011;9632;51.018;4.284;2023-04-01T02:59:47;10.10;;;2.65;;
18997;SDS011;9632;51.018;4.284;2023-04-01T03:02:13;10.98;;;2.75;;
18997;SDS011;9632;51.018;4.284;2023-04-01T03:04:39;11.05;;;3.13;;
18997;SDS011;9632;51.018;4.284;2023-04-01T03:07:05;6.97;;;2.78;;
18997;SDS011;9632;51.018;4.284;2023-04-01T03:09:30;11.02;;;3.05;;
18997;SDS011;9632;51.018;4.284;2023-04-01T03:11:56;9.02;;;3.40;;
18997;SDS011;9632;51.018;4.284;2023-04-01T03:14:22;10.93;;;3.22;;
18997;SDS011;9632;51.018;4.284;2023-04-01T03:16:47;9.70;;;3.20;;
18997;SDS011;9632;51.018;4.284;2023-04-01T03:19:13;9.00;;;3.50;;
18997;SDS011;9632;51.018;4.284;2023-04-01T03:21:39;6.90;;;2.80;;
18997;SDS011;9632;51.018;4.284;2023-04-01T03:24:05;8.35;;;3.15;;
18997;SDS011;9632;51.018;4.284;2023-04-01T03:26:31;12.27;;;3.78;;
18997;SDS011;9632;51.018;4.284;2023-04-01T03:28:57;15.88;;;4.00;;
18997;SDS011;9632;51.018;4.284;2023-04-01T03:31:23;8.95;;;3.58;;
18997;SDS011;9632;51.018;4.284;2023-04-01T03:33:49;13.57;;;4.07;;
18997;SDS011;9632;51.018;4.284;2023-04-01T03:36:15;13.32;;;4.25;;
18997;SDS011;9632;51.018;4.284;2023-04-01T03:38:41;8.98;;;3.83;;
18997;SDS011;9632;51.018;4.284;2023-04-01T03:41:11;13.45;;;4.38;;
18997;SDS011;9632;51.018;4.284;2023-04-01T03:43:38;15.10;;;4.35;;
18997;SDS011;9632;51.018;4.284;2023-04-01T03:46:03;16.70;;;4.68;;
18997;SDS011;9632;51.018;4.284;2023-04-01T03:48:29;11.75;;;4.20;;
18997;SDS011;9632;51.018;4.284;2023-04-01T03:50:55;14.95;;;4.30;;
18997;SDS011;9632;51.018;4.284;2023-04-01T03:53:21;14.70;;;4.20;;
18997;SDS011;9632;51.018;4.284;2023-04-01T03:55:47;14.40;;;4.68;;
18997;SDS011;9632;51.018;4.284;2023-04-01T03:58:13;15.68;;;4.65;;
18997;SDS011;9632;51.018;4.284;2023-04-01T04:00:38;17.42;;;4.97;;
18997;SDS011;9632;51.018;4.284;2023-04-01T04:03:05;13.77;;;4.30;;
18997;SDS011;9632;51.018;4.284;2023-04-01T04:05:31;12.80;;;4.72;;
18997;SDS011;9632;51.018;4.284;2023-04-01T04:07:57;10.48;;;4.40;;
18997;SDS011;9632;51.018;4.284;2023-04-01T04:10:23;14.93;;;4.65;;
18997;SDS011;9632;51.018;4.284;2023-04-01T04:12:50;13.27;;;4.30;;
18997;SDS011;9632;51.018;4.284;2023-04-01T04:15:16;11.88;;;3.55;;
18997;SDS011;9632;51.018;4.284;2023-04-01T04:17:43;11.52;;;3.47;;
18997;SDS011;9632;51.018;4.284;2023-04-01T04:20:10;7.90;;;3.08;;
18997;SDS011;9632;51.018;4.284;2023-04-01T04:22:35;8.73;;;3.40;;
18997;SDS011;9632;51.018;4.284;2023-04-01T04:25:01;7.10;;;3.00;;
18997;SDS011;9632;51.018;4.284;2023-04-01T04:27:26;9.25;;;3.40;;
18997;SDS011;9632;51.018;4.284;2023-04-01T04:29:52;7.10;;;3.05;;
18997;SDS011;9632;51.018;4.284;2023-04-01T04:32:18;8.82;;;3.10;;
18997;SDS011;9632;51.018;4.284;2023-04-01T04:34:43;10.88;;;3.35;;
18997;SDS011;9632;51.018;4.284;2023-04-01T04:37:09;6.70;;;3.40;;
18997;SDS011;9632;51.018;4.284;2023-04-01T04:39:35;12.38;;;4.25;;
18997;SDS011;9632;51.018;4.284;2023-04-01T04:42:00;7.82;;;3.92;;
18997;SDS011;9632;51.018;4.284;2023-04-01T04:44:26;7.43;;;3.75;;
18997;SDS011;9632;51.018;4.284;2023-04-01T04:46:51;9.35;;;4.20;;
18997;SDS011;9632;51.018;4.284;2023-04-01T04:49:17;10.70;;;4.20;;
18997;SDS011;9632;51.018;4.284;2023-04-01T04:51:43;9.80;;;4.00;;
18997;SDS011;9632;51.018;4.284;2023-04-01T04:54:09;7.90;;;4.05;;
18997;SDS011;9632;51.018;4.284;2023-04-01T04:56:35;6.50;;;3.90;;
18997;SDS011;9632;51.018;4.284;2023-04-01T04:59:00;8.98;;;4.00;;
18997;SDS011;9632;51.018;4.284;2023-04-01T05:01:26;7.07;;;3.42;;
18997;SDS011;9632;51.018;4.284;2023-04-01T05:03:52;8.98;;;3.92;;
18997;SDS011;9632;51.018;4.284;2023-04-01T05:06:18;7.22;;;3.83;;
18997;SDS011;9632;51.018;4.284;2023-04-01T05:08:44;5.35;;;3.40;;
18997;SDS011;9632;51.018;4.284;2023-04-01T05:11:20;5.90;;;3.20;;
18997;SDS011;9632;51.018;4.284;2023-04-01T05:13:46;6.50;;;3.10;;
18997;SDS011;9632;51.018;4.284;2023-04-01T05:16:16;5.13;;;2.90;;
18997;SDS011;9632;51.018;4.284;2023-04-01T05:18:43;7.40;;;3.03;;
18997;SDS011;9632;51.018;4.284;2023-04-01T05:21:09;7.95;;;3.65;;
18997;SDS011;9632;51.018;4.284;2023-04-01T05:23:36;7.47;;;3.55;;
18997;SDS011;9632;51.018;4.284;2023-04-01T05:26:03;8.35;;;3.67;;
18997;SDS011;9632;51.018;4.284;2023-04-01T05:28:30;8.55;;;3.40;;
18997;SDS011;9632;51.018;4.284;2023-04-01T05:30:57;9.48;;;3.70;;
18997;SDS011;9632;51.018;4.284;2023-04-01T05:33:24;8.20;;;3.80;;
18997;SDS011;9632;51.018;4.284;2023-04-01T05:35:49;12.05;;;3.83;;
18997;SDS011;9632;51.018;4.284;2023-04-01T05:38:15;8.00;;;3.95;;
18997;SDS011;9632;51.018;4.284;2023-04-01T05:40:41;8.43;;;3.95;;
18997;SDS011;9632;51.018;4.284;2023-04-01T05:43:06;7.95;;;4.07;;
18997;SDS011;9632;51.018;4.284;2023-04-01T05:45:32;10.90;;;5.30;;
18997;SDS011;9632;51.018;4.284;2023-04-01T05:47:59;8.52;;;4.68;;
18997;SDS011;9632;51.018;4.284;2023-04-01T05:50:24;6.75;;;4.15;;
18997;SDS011;9632;51.018;4.284;2023-04-01T05:52:50;5.85;;;3.60;;
18997;SDS011;9632;51.018;4.284;2023-04-01T05:55:16;7.68;;;3.22;;
18997;SDS011;9632;51.018;4.284;2023-04-01T05:57:42;7.22;;;3.47;;
18997;SDS011;9632;51.018;4.284;2023-04-01T06:00:11;8.55;;;3.55;;
18997;SDS011;9632;51.018;4.284;2023-04-01T06:02:37;8.50;;;3.75;;
18997;SDS011;9632;51.018;4.284;2023-04-01T06:07:35;6.30;;;2.80;;
18997;SDS011;9632;51.018;4.284;2023-04-01T06:10:01;4.45;;;2.58;;
18997;SDS011;9632;51.018;4.284;2023-04-01T06:12:40;7.55;;;2.80;;
18997;SDS011;9632;51.018;4.284;2023-04-01T06:26:24;6.38;;;2.40;;
18997;SDS011;9632;51.018;4.284;2023-04-01T06:34:59;10.57;;;2.20;;
18997;SDS011;9632;51.018;4.284;2023-04-01T06:43:19;2.95;;;1.35;;
18997;SDS011;9632;51.018;4.284;2023-04-01T06:49:02;5.20;;;1.30;;
18997;SDS011;9632;51.018;4.284;2023-04-01T06:54:15;3.60;;;1.10;;
18997;SDS011;9632;51.018;4.284;2023-04-01T06:56:58;2.20;;;1.10;;
18997;SDS011;9632;51.018;4.284;2023-04-01T06:59:43;1.73;;;0.93;;
18997;SDS011;9632;51.018;4.284;2023-04-01T07:04:44;2.25;;;1.15;;
18997;SDS011;9632;51.018;4.284;2023-04-01T07:07:29;1.55;;;0.93;;
18997;SDS011;9632;51.018;4.284;2023-04-01T07:10:02;2.05;;;1.00;;
18997;SDS011;9632;51.018;4.284;2023-04-01T07:13:09;3.55;;;1.30;;
18997;SDS011;9632;51.018;4.284;2023-04-01T07:18:12;4.22;;;1.33;;
18997;SDS011;9632;51.018;4.284;2023-04-01T07:20:55;2.67;;;1.10;;
18997;SDS011;9632;51.018;4.284;2023-04-01T07:23:23;3.03;;;1.10;;
18997;SDS011;9632;51.018;4.284;2023-04-01T07:26:00;1.85;;;1.17;;
18997;SDS011;9632;51.018;4.284;2023-04-01T07:28:36;2.30;;;1.00;;
18997;SDS011;9632;51.018;4.284;2023-04-01T07:50:10;3.08;;;1.00;;
18997;SDS011;9632;51.018;4.284;2023-04-01T07:56:14;5.15;;;1.02;;
18997;SDS011;9632;51.018;4.284;2023-04-01T08:01:30;2.40;;;1.17;;
18997;SDS011;9632;51.018;4.284;2023-04-01T08:14:41;3.22;;;0.70;;
18997;SDS011;9632;51.018;4.284;2023-04-01T08:22:57;1.13;;;0.80;;
18997;SDS011;9632;51.018;4.284;2023-04-01T08:25:46;2.28;;;0.77;;
18997;SDS011;9632;51.018;4.284;2023-04-01T08:31:22;1.75;;;0.60;;
18997;SDS011;9632;51.018;4.284;2023-04-01T08:34:10;1.83;;;0.47;;
18997;SDS011;9632;51.018;4.284;2023-04-01T08:36:59;0.90;;;0.60;;
18997;SDS011;9632;51.018;4.284;2023-04-01T08:42:03;3.22;;;0.50;;
18997;SDS011;9632;51.018;4.284;2023-04-01T08:52:50;1.77;;;0.80;;
18997;SDS011;9632;51.018;4.284;2023-04-01T08:55:37;1.63;;;0.77;;
18997;SDS011;9632;51.018;4.284;2023-04-01T09:01:17;2.20;;;1.13;;
18997;SDS011;9632;51.018;4.284;2023-04-01T09:06:38;4.10;;;1.40;;
18997;SDS011;9632;51.018;4.284;2023-04-01T09:09:24;1.70;;;1.10;;
18997;SDS011;9632;51.018;4.284;2023-04-01T09:12:15;2.08;;;1.40;;
18997;SDS011;9632;51.018;4.284;2023-04-01T09:15:05;2.65;;;1.98;;
18997;SDS011;9632;51.018;4.284;2023-04-01T09:43:01;8.25;;;4.35;;
18997;SDS011;9632;51.018;4.284;2023-04-01T09:48:30;7.45;;;4.30;;
18997;SDS011;9632;51.018;4.284;2023-04-01T09:51:22;7.78;;;4.22;;
18997;SDS011;9632;51.018;4.284;2023-04-01T10:11:14;5.50;;;2.58;;
18997;SDS011;9632;51.018;4.284;2023-04-01T10:19:39;4.75;;;2.13;;
18997;SDS011;9632;51.018;4.284;2023-04-01T10:22:30;4.93;;;2.10;;
18997;SDS011;9632;51.018;4.284;2023-04-01T11:17:52;2.90;;;1.58;;
18997;SDS011;9632;51.018;4.284;2023-04-01T11:43:11;2.60;;;1.20;;
18997;SDS011;9632;51.018;4.284;2023-04-01T11:46:10;2.53;;;1.13;;
18997;SDS011;9632;51.018;4.284;2023-04-01T12:02:47;2.33;;;1.15;;
18997;SDS011;9632;51.018;4.284;2023-04-01T12:17:03;3.05;;;1.25;;
18997;SDS011;9632;51.018;4.284;2023-04-01T12:20:36;4.97;;;1.13;;
18997;SDS011;9632;51.018;4.284;2023-04-01T12:28:25;3.97;;;1.17;;
18997;SDS011;9632;51.018;4.284;2023-04-01T12:47:05;1.83;;;0.90;;
18997;SDS011;9632;51.018;4.284;2023-04-01T12:49:56;4.85;;;1.45;;
18997;SDS011;9632;51.018;4.284;2023-04-01T13:25:40;2.38;;;0.80;;
18997;SDS011;9632;51.018;4.284;2023-04-01T13:30:57;4.82;;;3.28;;
18997;SDS011;9632;51.018;4.284;2023-04-01T13:44:46;8.85;;;4.90;;
18997;SDS011;9632;51.018;4.284;2023-04-01T13:53:18;7.38;;;4.43;;
18997;SDS011;9632;51.018;4.284;2023-04-01T14:07:22;4.68;;;3.13;;
18997;SDS011;9632;51.018;4.284;2023-04-01T14:10:23;5.93;;;3.47;;
18997;SDS011;9632;51.018;4.284;2023-04-01T14:15:47;7.50;;;4.60;;
18997;SDS011;9632;51.018;4.284;2023-04-01T14:29:16;4.55;;;3.40;;
18997;SDS011;9632;51.018;4.284;2023-04-01T14:31:59;8.80;;;4.20;;
18997;SDS011;9632;51.018;4.284;2023-04-01T14:45:33;4.55;;;2.78;;
18997;SDS011;9632;51.018;4.284;2023-04-01T14:50:57;6.43;;;3.63;;
18997;SDS011;9632;51.018;4.284;2023-04-01T14:53:59;7.35;;;3.35;;
18997;SDS011;9632;51.018;4.284;2023-04-01T14:57:14;4.82;;;3.45;;
18997;SDS011;9632;51.018;4.284;2023-04-01T14:59:41;7.18;;;3.58;;
18997;SDS011;9632;51.018;4.284;2023-04-01T15:13:26;3.10;;;1.80;;
18997;SDS011;9632;51.018;4.284;2023-04-01T15:34:35;2.80;;;1.30;;
18997;SDS011;9632;51.018;4.284;2023-04-01T15:37:36;5.68;;;1.50;;
18997;SDS011;9632;51.018;4.284;2023-04-01T15:45:26;2.00;;;1.00;;
18997;SDS011;9632;51.018;4.284;2023-04-01T15:50:57;2.83;;;0.90;;
18997;SDS011;9632;51.018;4.284;2023-04-01T15:53:45;3.75;;;1.50;;
18997;SDS011;9632;51.018;4.284;2023-04-01T15:56:22;2.03;;;1.27;;
18997;SDS011;9632;51.018;4.284;2023-04-01T16:02:26;5.18;;;2.25;;
18997;SDS011;9632;51.018;4.284;2023-04-01T16:10:44;4.50;;;2.10;;
18997;SDS011;9632;51.018;4.284;2023-04-01T16:19:55;6.45;;;3.22;;
18997;SDS011;9632;51.018;4.284;2023-04-01T16:22:37;7.07;;;4.03;;
18997;SDS011;9632;51.018;4.284;2023-04-01T16:28:21;6.53;;;4.20;;
18997;SDS011;9632;51.018;4.284;2023-04-01T16:31:07;7.18;;;3.58;;
18997;SDS011;9632;51.018;4.284;2023-04-01T16:36:41;7.10;;;3.47;;
18997;SDS011;9632;51.018;4.284;2023-04-01T16:45:00;6.00;;;3.92;;
18997;SDS011;9632;51.018;4.284;2023-04-01T16:47:53;6.75;;;3.42;;
18997;SDS011;9632;51.018;4.284;2023-04-01T16:50:30;4.38;;;2.40;;
18997;SDS011;9632;51.018;4.284;2023-04-01T16:53:34;4.60;;;2.33;;
18997;SDS011;9632;51.018;4.284;2023-04-01T16:56:14;4.72;;;2.10;;
18997;SDS011;9632;51.018;4.284;2023-04-01T17:01:36;3.67;;;2.08;;
18997;SDS011;9632;51.018;4.284;2023-04-01T17:10:00;4.28;;;2.70;;
18997;SDS011;9632;51.018;4.284;2023-04-01T17:18:11;4.32;;;2.80;;
18997;SDS011;9632;51.018;4.284;2023-04-01T17:20:43;4.80;;;2.60;;
18997;SDS011;9632;51.018;4.284;2023-04-01T17:23:24;5.68;;;3.00;;
18997;SDS011;9632;51.018;4.284;2023-04-01T17:31:33;4.85;;;3.15;;
18997;SDS011;9632;51.018;4.284;2023-04-01T17:34:22;4.90;;;3.05;;
18997;SDS011;9632;51.018;4.284;2023-04-01T17:42:48;3.85;;;3.00;;
18997;SDS011;9632;51.018;4.284;2023-04-01T17:48:24;6.00;;;3.45;;
18997;SDS011;9632;51.018;4.284;2023-04-01T17:56:32;5.57;;;3.40;;
18997;SDS011;9632;51.018;4.284;2023-04-01T18:20:23;4.30;;;2.53;;
18997;SDS011;9632;51.018;4.284;2023-04-01T18:22:58;7.75;;;3.33;;
18997;SDS011;9632;51.018;4.284;2023-04-01T18:25:35;8.38;;;4.00;;
18997;SDS011;9632;51.018;4.284;2023-04-01T18:31:07;7.90;;;4.07;;
18997;SDS011;9632;51.018;4.284;2023-04-01T18:33:43;6.70;;;3.55;;
18997;SDS011;9632;51.018;4.284;2023-04-01T18:45:20;16.77;;;5.97;;
18997;SDS011;9632;51.018;4.284;2023-04-01T18:51:01;18.23;;;6.80;;
18997;SDS011;9632;51.018;4.284;2023-04-01T18:53:43;13.82;;;6.75;;
18997;SDS011;9632;51.018;4.284;2023-04-01T18:56:45;17.17;;;7.22;;
18997;SDS011;9632;51.018;4.284;2023-04-01T18:59:14;21.40;;;7.82;;
18997;SDS011;9632;51.018;4.284;2023-04-01T19:04:31;25.00;;;8.23;;
18997;SDS011;9632;51.018;4.284;2023-04-01T19:10:13;26.17;;;8.45;;
18997;SDS011;9632;51.018;4.284;2023-04-01T19:15:52;21.50;;;9.07;;
18997;SDS011;9632;51.018;4.284;2023-04-01T19:21:39;24.83;;;7.63;;
18997;SDS011;9632;51.018;4.284;2023-04-01T19:26:47;25.33;;;7.80;;
18997;SDS011;9632;51.018;4.284;2023-04-01T19:35:09;24.48;;;7.70;;
18997;SDS011;9632;51.018;4.284;2023-04-01T19:43:23;22.30;;;7.25;;
18997;SDS011;9632;51.018;4.284;2023-04-01T19:51:43;27.02;;;10.10;;
18997;SDS011;9632;51.018;4.284;2023-04-01T19:54:33;30.75;;;10.55;;
18997;SDS011;9632;51.018;4.284;2023-04-01T20:05:39;23.55;;;7.95;;
18997;SDS011;9632;51.018;4.284;2023-04-01T20:08:31;26.30;;;9.30;;
18997;SDS011;9632;51.018;4.284;2023-04-01T20:19:21;21.50;;;7.40;;
18997;SDS011;9632;51.018;4.284;2023-04-01T20:24:53;24.02;;;9.05;;
18997;SDS011;9632;51.018;4.284;2023-04-01T20:27:27;21.08;;;8.75;;
18997;SDS011;9632;51.018;4.284;2023-04-01T20:44:11;26.77;;;10.82;;
18997;SDS011;9632;51.018;4.284;2023-04-01T21:08:08;35.33;;;14.38;;
18997;SDS011;9632;51.018;4.284;2023-04-01T21:13:32;33.35;;;14.30;;
18997;SDS011;9632;51.018;4.284;2023-04-01T21:16:14;34.95;;;14.27;;
18997;SDS011;9632;51.018;4.284;2023-04-01T21:21:51;36.90;;;14.50;;
18997;SDS011;9632;51.018;4.284;2023-04-01T21:32:58;28.00;;;12.98;;
18997;SDS011;9632;51.018;4.284;2023-04-01T21:35:38;31.15;;;14.43;;
18997;SDS011;9632;51.018;4.284;2023-04-01T21:52:10;19.00;;;11.35;;
18997;SDS011;9632;51.018;4.284;2023-04-01T22:05:37;12.10;;;8.30;;
18997;SDS011;9632;51.018;4.284;2023-04-01T22:08:35;13.38;;;8.73;;
18997;SDS011;9632;51.018;4.284;2023-04-01T22:16:51;13.55;;;9.43;;
18997;SDS011;9632;51.018;4.284;2023-04-01T22:27:28;17.15;;;10.23;;
18997;SDS011;9632;51.018;4.284;2023-04-01T22:46:56;20.75;;;13.02;;
18997;SDS011;9632;51.018;4.284;2023-04-01T22:49:36;21.67;;;14.70;;
18997;SDS011;9632;51.018;4.284;2023-04-01T22:52:10;20.05;;;13.15;;
18997;SDS011;9632;51.018;4.284;2023-04-01T22:54:50;20.20;;;13.48;;
18997;SDS011;9632;51.018;4.284;2023-04-01T22:59:46;18.20;;;12.85;;
18997;SDS011;9632;51.018;4.284;2023-04-01T23:02:25;17.23;;;11.95;;
18997;SDS011;9632;51.018;4.284;2023-04-01T23:04:58;19.73;;;13.02;;
18997;SDS011;9632;51.018;4.284;2023-04-01T23:07:45;18.83;;;12.85;;
18997;SDS011;9632;51.018;4.284;2023-04-01T23:10:19;20.67;;;12.88;;
18997;SDS011;9632;51.018;4.284;2023-04-01T23:13:07;22.40;;;15.07;;
18997;SDS011;9632;51.018;4.284;2023-04-01T23:15:38;23.75;;;16.23;;
18997;SDS011;9632;51.018;4.284;2023-04-01T23:18:17;31.08;;;19.50;;
18997;SDS011;9632;51.018;4.284;2023-04-01T23:23:45;27.73;;;17.98;;
18997;SDS011;9632;51.018;4.284;2023-04-01T23:26:31;31.90;;;19.30;;
18997;SDS011;9632;51.018;4.284;2023-04-01T23:29:17;26.13;;;17.35;;
18997;SDS011;9632;51.018;4.284;2023-04-01T23:31:47;28.27;;;17.52;;
18997;SDS011;9632;51.018;4.284;2023-04-01T23:34:23;25.17;;;16.40;;
18997;SDS011;9632;51.018;4.284;2023-04-01T23:36:55;30.52;;;17.60;;
18997;SDS011;9632;51.018;4.284;2023-04-01T23:44:51;28.20;;;18.08;;
18997;SDS011;9632;51.018;4.284;2023-04-01T23:47:22;28.50;;;17.60;;
18997;SDS011;9632;51.018;4.284;2023-04-01T23:49:52;29.40;;;18.65;;
18997;SDS011;9632;51.018;4.284;2023-04-01T23:52:25;31.40;;;18.60;;
18997;SDS011;9632;51.018;4.284;2023-04-01T23:54:54;28.02;;;17.30;;
18997;SDS011;9632;51.018;4.284;2023-04-01T23:57:34;25.48;;;16.65;;
